Kanarraville, Utah
Current Conditions -  °F | °C
As of 5:53 PM on Thursday 27 Nov 2014 (Local Time) from KCDC Reporting Station
Clear Clear  
Wind Chill: 45°   Ceiling: Unl
Heat Index: 48°   Visibility: 10mi
Dew Point: 18°   Wind: 6mph
Humidity: 30%   Direction: 140°SE
Pressure: 30.26"   Gusts: NA
Location:  37.54°N, 113.18°W
Report Text: KCDC 280053Z AUTO 14005KT 10SM CLR 09/M08 A3026 RMK AO2 SLP246 T00891078
Loading
Personal Weather Stations






























Interactive Weather Map New forecast layout! Learn more

10-Day Weather Forecast

Advertisements
Track Severe Weather on mobile